KISM

Kissimmee Gateway Airport

Orlando, Florida, USA
KISM 242340Z 2500/2524 11009KT P6SM SCT090 SCT250 FM250300 07003KT P6SM FEW025 FM251400 09006KT P6SM SCT030 SCT250 FM251800 10008KT P6SM VCTS SCT035CB SCT250
Issued Valid From Valid To
Sep-24 @ 23:40 UTC
(2 hours ago)
Sep-25 @ 00:00 UTC
(2 hours ago)
Sep-26 @ 00:00 UTC
(in 22 hours)
Sep-25 @ 00:00 to Sep-25 @ 03:00
KISM 242340Z 2500/2524 11009KT P6SM SCT090 SCT250
Wind Visibility Clouds
110° at 9 knots Greater than 6 miles
  • Scattered at 9,000' AGL
  • Scattered at 25,000' AGL
From Sep-25 @ 03:00 to Sep-25 @ 14:00
FM250300 07003KT P6SM FEW025
Wind Visibility Clouds
70° at 3 knots Greater than 6 miles
  • Few at 2,500' AGL
From Sep-25 @ 14:00 to Sep-25 @ 18:00
FM251400 09006KT P6SM SCT030 SCT250
Wind Visibility Clouds
90° at 6 knots Greater than 6 miles
  • Scattered at 3,000' AGL
  • Scattered at 25,000' AGL
From Sep-25 @ 18:00 to Sep-26 @ 00:00
FM251800 10008KT P6SM VCTS SCT035CB SCT250
Wind Visibility Clouds Conditions
100° at 8 knots Greater than 6 miles
  • Scattered at 3,500' AGL
  • Scattered at 25,000' AGL
  • Area Thunderstorm
KISM 242340Z 2500/2524 11009KT P6SM SCT090 SCT250 FM250300 07003KT P6SM FEW025 FM251400 09006KT P6SM SCT030 SCT250 FM251800 10008KT P6SM VCTS SCT035CB SCT250
Issued Sep-24 @ 23:40 UTC
(2 hours ago)
Valid From Sep-25 @ 00:00 UTC
(2 hours ago)
Valid To Sep-26 @ 00:00 UTC
(in 22 hours)
Sep-25 @ 00:00 - Sep-25 @ 03:00
Wind Visibility
110° at 9 knots Greater than 6 miles
Clouds
  • Scattered at 9,000' AGL
  • Scattered at 25,000' AGL
From Sep-25 @ 03:00 - Sep-25 @ 14:00
Wind Visibility
70° at 3 knots Greater than 6 miles
Clouds
  • Few at 2,500' AGL
From Sep-25 @ 14:00 - Sep-25 @ 18:00
Wind Visibility
90° at 6 knots Greater than 6 miles
Clouds
  • Scattered at 3,000' AGL
  • Scattered at 25,000' AGL
From Sep-25 @ 18:00 - Sep-26 @ 00:00
Wind Visibility
100° at 8 knots Greater than 6 miles
Clouds
  • Scattered at 3,500' AGL
  • Scattered at 25,000' AGL
Conditions
  • Area Thunderstorm